メインページ
METAR-TAF:

METAR-TAF

空港 :

Whitecourt, アルバータ州, カナダ

緯度: 54-09N, 経度: 115-47W, 海抜: 783m

現時点の気象観測

当レポートは49分前の18:00(UTC)に作成
北/北西の風 4kt、西から北/北東の間で変化する
気温 18°C
湿度 59%
気圧 1012 hPa
視程: 24.1km
高度3100ftの千切れ雲あり, 塔状積雲.
高度11000ftの千切れ雲あり

METAR: CYZU 181800Z 34004KT 260V020 15SM BKN031TCU BKN110 18/10 A2988 RMK TCU5AC1 SLP119 DENSITY ALT 3600FT

時間: 12:49 (18:49 UTC)

予報

当レポートは11分前の18:38(UTC)に作成
予報は18日の 19時(UTC)から 18日の 23時(UTC)まで有効
北/北西の風 5kt
視程: 10km
高度3000ftの千切れ雲あり
18日の 20時(UTC)から 18日の 21時(UTC)まで一時的に
視程: 10km
弱いにわか雨
18日の 20時(UTC)から 18日の 21時(UTC)まで徐々に
西/北西の風 12kt、最大22ktの突風を伴う
18日の 2100時(UTC)から
西/北西の風 12kt、最大22ktの突風を伴う
視程: 10km
高度5000ftの雲は散在している
18日の 21時(UTC)から 18日の 23時(UTC)まで一時的に
視程: 10km
高度5000ftの雲は散在している, 積乱雲.
高度25000ftの千切れ雲あり
近辺で激しい雷雨

TAF: CYZU 181838Z 1819/1823 34005KT P6SM BKN030 TEMPO 1820/1821 P6SM -SHRA BECMG 1820/1821 30012G22KT FM182100 30012G22KT P6SM SCT050 TEMPO 1821/1823 P6SM VCTS SCT050CB BKN250 RMK NXT FCST WILL BE ISSUED AT 191415Z

4,000以上の空港の気象観測と天気予報(METAR報とTAF報)

利用可能な観測所は地図上に黄色い丸と赤い丸で示す。

丸の上にカーソルを重ねると観測所名を参照できる。

次にクリックすると気象観測と天気予報を参照できる。

マップの切り替え:黒色「×」印の緑ボタンをクリックして拡大、「-」印の緑ボタンをクリックして縮小、緑色の三角印をクリックして隣りの地図に切り替え


METAR-TAF: